Time;durP1;ratioP1;P1;durP2;ratioP2;P2;SDS_P1;SDS_P2;PMS_P1;PMS_P2;Temp;Humidity;BMP_temperature;BMP_pressure;BME280_temperature;BME280_humidity;BME280_pressure;Samples;Min_cycle;Max_cycle;Signal;HPM_P1;HPM_P2
2022/07/02 00:00:06;;;;;;;3.10;2.20;;;24.70;61.00;;;;;;4954089;28;20400;-73
2022/07/02 00:02:43;;;;;;;2.42;2.00;;;24.70;61.00;;;;;;4969568;28;20027;-73
2022/07/02 00:05:13;;;;;;;2.20;1.80;;;24.70;61.00;;;;;;4953967;29;20409;-73
2022/07/02 00:07:38;;;;;;;;;;;24.70;61.00;;;;;;4954941;28;20440;-73
2022/07/02 00:10:05;;;;;;;2.28;1.85;;;24.70;61.00;;;;;;4970132;28;19911;-73
2022/07/02 00:12:31;;;;;;;2.58;1.90;;;24.70;61.00;;;;;;4983455;23;20095;-78
2022/07/02 00:14:58;;;;;;;2.00;1.70;;;24.70;60.90;;;;;;4954018;28;20043;-79
2022/07/02 00:17:25;;;;;;;2.15;1.90;;;24.80;61.00;;;;;;4954081;28;20090;-79
2022/07/02 00:19:52;;;;;;;1.95;1.70;;;24.80;61.00;;;;;;4954967;28;20027;-78
2022/07/02 00:22:18;;;;;;;2.15;1.77;;;24.70;60.80;;;;;;4954614;28;20495;-78
2022/07/02 00:24:45;;;;;;;2.70;1.95;;;24.70;60.90;;;;;;4969859;28;20085;-78
2022/07/02 00:27:18;;;;;;;2.30;1.60;;;24.70;60.90;;;;;;4969602;28;20389;-79
2022/07/02 00:30:03;;;;;;;2.28;1.60;;;24.70;61.00;;;;;;4954941;28;20027;-79
2022/07/02 00:32:32;;;;;;;2.20;1.70;;;24.80;61.00;;;;;;4937910;29;20035;-79
2022/07/02 00:35:03;;;;;;;2.17;1.80;;;24.80;60.90;;;;;;4969718;28;20035;-79
2022/07/02 00:37:30;;;;;;;2.15;1.80;;;24.80;61.00;;;;;;4953381;28;20169;-79
2022/07/02 00:39:57;;;;;;;2.30;1.70;;;24.80;61.00;;;;;;4969567;28;20369;-79
2022/07/02 00:42:26;;;;;;;2.25;1.80;;;24.70;61.00;;;;;;4954510;28;20123;-78
2022/07/02 00:44:53;;;;;;;2.50;1.95;;;24.70;60.90;;;;;;4954598;28;20063;-78
2022/07/02 00:47:24;;;;;;;2.25;1.88;;;24.70;60.90;;;;;;4954291;28;20420;-78
2022/07/02 00:49:50;;;;;;;2.10;1.70;;;24.70;60.90;;;;;;4954947;29;20029;-78
2022/07/02 00:52:15;;;;;;;2.65;1.88;;;24.70;61.00;;;;;;4953142;29;20039;-78
2022/07/02 00:54:41;;;;;;;2.58;2.10;;;24.70;60.90;;;;;;4969341;28;20027;-79
2022/07/02 00:57:07;;;;;;;2.20;1.75;;;24.70;60.90;;;;;;4954154;28;20038;-79
2022/07/02 00:59:35;;;;;;;1.63;1.52;;;24.70;60.90;;;;;;4969310;28;20118;-79
2022/07/02 01:02:01;;;;;;;2.60;2.00;;;24.70;60.90;;;;;;4969008;28;20038;-78
2022/07/02 01:04:31;;;;;;;2.60;1.77;;;24.70;60.90;;;;;;4954175;28;20106;-79
2022/07/02 01:07:05;;;;;;;2.38;1.70;;;24.70;60.90;;;;;;4953976;28;20058;-78
2022/07/02 01:12:22;;;;;;;;;;;24.70;60.90;;;;;;4954516;28;20031;-78
2022/07/02 01:14:49;;;;;;;2.65;1.75;;;24.70;60.90;;;;;;4953954;28;20345;-80
2022/07/02 01:17:15;;;;;;;2.28;1.70;;;24.70;60.80;;;;;;4953852;28;20377;-80
2022/07/02 01:19:41;;;;;;;2.03;1.60;;;24.70;60.90;;;;;;4968276;28;20028;-80
2022/07/02 01:22:09;;;;;;;2.42;1.90;;;24.70;61.00;;;;;;4952924;29;20575;-79
2022/07/02 01:24:35;;;;;;;2.67;1.83;;;24.70;60.80;;;;;;4954327;28;20054;-80
2022/07/02 01:27:01;;;;;;;2.00;1.60;;;24.70;60.90;;;;;;4953697;28;20122;-80
2022/07/02 01:29:26;;;;;;;2.55;1.88;;;24.70;60.90;;;;;;4953974;28;20106;-79
2022/07/02 01:31:52;;;;;;;2.22;1.73;;;24.70;60.90;;;;;;4952522;28;20070;-80
2022/07/02 01:34:18;;;;;;;2.28;1.80;;;24.60;60.80;;;;;;4969152;28;20035;-80
2022/07/02 01:36:44;;;;;;;2.03;1.83;;;24.60;60.80;;;;;;4953778;28;20034;-80
2022/07/02 01:39:09;;;;;;;2.05;1.58;;;24.70;60.90;;;;;;4968824;28;20039;-80
2022/07/02 01:41:41;;;;;;;2.88;1.90;;;24.60;60.80;;;;;;4968811;28;20027;-80
2022/07/02 01:44:08;;;;;;;1.98;1.65;;;24.70;60.80;;;;;;4968650;28;20508;-80
2022/07/02 01:46:34;;;;;;;2.38;1.88;;;24.70;60.90;;;;;;4953171;28;20030;-80
2022/07/02 01:49:00;;;;;;;2.70;2.00;;;24.70;60.80;;;;;;4953883;28;20435;-80
2022/07/02 01:51:26;;;;;;;3.60;1.83;;;24.70;60.80;;;;;;4953837;28;20067;-79
2022/07/02 01:53:52;;;;;;;2.40;1.95;;;24.70;60.80;;;;;;4953630;28;20392;-80
2022/07/02 01:56:18;;;;;;;2.22;1.90;;;24.70;60.80;;;;;;4953187;28;20031;-80
2022/07/02 01:58:44;;;;;;;2.58;1.95;;;24.70;60.80;;;;;;4936775;29;20035;-80
2022/07/02 02:01:10;;;;;;;2.30;1.90;;;24.70;60.70;;;;;;4968654;28;20023;-80
2022/07/02 02:03:36;;;;;;;2.65;1.60;;;24.70;60.70;;;;;;4953447;28;20027;-80
2022/07/02 02:06:02;;;;;;;2.05;1.85;;;24.70;60.80;;;;;;4953313;28;20027;-80
2022/07/02 02:08:28;;;;;;;2.63;1.92;;;24.70;60.80;;;;;;4968597;28;20542;-80
2022/07/02 02:10:55;;;;;;;2.35;1.75;;;24.70;60.70;;;;;;4952407;29;20090;-80
2022/07/02 02:13:20;;;;;;;1.95;1.67;;;24.60;60.70;;;;;;4953444;28;20094;-80
2022/07/02 02:15:46;;;;;;;2.95;2.00;;;24.70;60.80;;;;;;4953110;28;20078;-80
2022/07/02 02:18:12;;;;;;;2.63;1.75;;;24.70;61.40;;;;;;4953536;28;20251;-80
2022/07/02 02:20:38;;;;;;;2.20;1.80;;;24.70;60.80;;;;;;4953496;28;20079;-78
2022/07/02 02:23:05;;;;;;;3.08;1.73;;;24.60;60.70;;;;;;4953406;28;20037;-80
2022/07/02 02:25:31;;;;;;;1.88;1.60;;;24.70;60.80;;;;;;4952139;29;20027;-80
2022/07/02 02:27:58;;;;;;;2.40;1.90;;;24.60;60.70;;;;;;4952229;29;20042;-80
2022/07/02 02:30:24;;;;;;;1.92;1.65;;;24.60;60.70;;;;;;4952250;28;20041;-79
2022/07/02 02:32:50;;;;;;;2.58;1.80;;;24.60;60.70;;;;;;4956791;28;20093;-80
2022/07/02 02:35:15;;;;;;;2.15;1.77;;;24.60;60.70;;;;;;4956838;28;20031;-79
2022/07/02 02:37:41;;;;;;;2.35;1.73;;;24.60;60.70;;;;;;4956498;28;20479;-79
2022/07/02 02:40:08;;;;;;;2.30;1.88;;;24.70;60.70;;;;;;4956956;28;20118;-80
2022/07/02 02:42:33;;;;;;;1.90;1.70;;;24.60;60.70;;;;;;4956682;28;20052;-79
2022/07/02 02:44:59;;;;;;;2.20;1.70;;;24.60;60.70;;;;;;4956847;28;20059;-80
2022/07/02 02:47:25;;;;;;;2.60;1.80;;;24.60;60.70;;;;;;4956250;28;20031;-80
2022/07/02 02:49:51;;;;;;;2.17;1.92;;;24.60;60.70;;;;;;4956652;28;20027;-80
2022/07/02 02:52:17;;;;;;;1.75;1.58;;;24.60;60.70;;;;;;4956517;28;20082;-80
2022/07/02 02:54:43;;;;;;;2.28;1.65;;;24.60;60.70;;;;;;4956407;28;20492;-80
2022/07/02 02:57:08;;;;;;;1.70;1.60;;;24.60;60.60;;;;;;4971016;28;20023;-80
2022/07/02 02:59:35;;;;;;;1.98;1.63;;;24.60;60.70;;;;;;4956548;28;20019;-79
2022/07/02 03:02:00;;;;;;;2.08;1.58;;;24.60;60.60;;;;;;4956544;28;20395;-79
2022/07/02 03:04:26;;;;;;;2.15;1.80;;;24.60;60.70;;;;;;4955068;29;20031;-79
2022/07/02 03:06:52;;;;;;;2.22;1.90;;;24.60;60.70;;;;;;4956118;28;20143;-80
2022/07/02 03:09:18;;;;;;;2.38;1.95;;;24.60;60.70;;;;;;4956232;28;20558;-80
2022/07/02 03:11:44;;;;;;;2.30;1.73;;;24.60;60.70;;;;;;4956566;28;20027;-80
2022/07/02 03:14:10;;;;;;;2.15;1.73;;;24.60;60.70;;;;;;4970904;28;20045;-80
2022/07/02 03:16:36;;;;;;;2.58;1.73;;;24.60;60.60;;;;;;4955799;28;20039;-80
2022/07/02 03:19:02;;;;;;;2.05;1.70;;;24.60;60.60;;;;;;4956138;28;20027;-80
2022/07/02 03:21:28;;;;;;;1.83;1.52;;;24.60;60.60;;;;;;4955039;29;20035;-80
2022/07/02 03:23:54;;;;;;;2.42;2.05;;;24.60;60.60;;;;;;4954779;29;20391;-80
2022/07/02 03:26:20;;;;;;;2.25;1.70;;;24.60;60.60;;;;;;4955751;28;20027;-80
2022/07/02 03:28:45;;;;;;;1.90;1.70;;;24.60;60.60;;;;;;4955994;28;20031;-79
2022/07/02 03:31:11;;;;;;;3.97;1.60;;;24.60;60.60;;;;;;4955787;28;20388;-80
2022/07/02 03:33:38;;;;;;;2.00;1.80;;;24.60;60.60;;;;;;4955773;28;20031;-79
2022/07/02 03:36:04;;;;;;;2.00;1.67;;;24.60;60.60;;;;;;4970365;28;20035;-80
2022/07/02 03:38:30;;;;;;;2.30;1.88;;;24.60;60.60;;;;;;4955564;28;20023;-78
2022/07/02 03:40:56;;;;;;;2.08;1.80;;;24.60;60.60;;;;;;4970677;28;20033;-80
2022/07/02 03:43:22;;;;;;;1.98;1.70;;;24.60;60.50;;;;;;4954915;28;20155;-79
2022/07/02 03:45:48;;;;;;;2.70;2.00;;;24.60;60.50;;;;;;4955382;28;20274;-79
2022/07/02 03:48:14;;;;;;;2.10;1.60;;;24.70;60.60;;;;;;4955524;28;20518;-80
2022/07/02 03:50:42;;;;;;;2.85;1.90;;;24.60;60.50;;;;;;4955607;28;20031;-80
2022/07/02 03:53:09;;;;;;;1.92;1.52;;;24.60;60.50;;;;;;4970269;28;20031;-80
2022/07/02 03:55:34;;;;;;;2.13;1.80;;;24.60;60.60;;;;;;4970087;28;20499;-80
2022/07/02 03:58:01;;;;;;;3.15;1.77;;;24.60;60.60;;;;;;4970294;28;20078;-80
2022/07/02 04:00:26;;;;;;;2.05;1.52;;;24.60;60.60;;;;;;4955478;28;20692;-80
2022/07/02 04:02:52;;;;;;;2.58;2.00;;;24.60;60.60;;;;;;4955467;28;20039;-80
2022/07/02 04:05:18;;;;;;;2.40;1.80;;;24.60;60.60;;;;;;4955284;28;20034;-80
2022/07/02 04:07:45;;;;;;;4.50;1.83;;;24.60;60.60;;;;;;4955003;28;20094;-80
2022/07/02 04:10:10;;;;;;;2.80;2.10;;;24.60;60.60;;;;;;4970096;28;20032;-80
2022/07/02 04:12:36;;;;;;;2.35;1.70;;;24.60;60.60;;;;;;4954980;28;20396;-80
2022/07/02 04:15:03;;;;;;;3.05;2.08;;;24.60;60.60;;;;;;4970160;28;20031;-80
2022/07/02 04:17:29;;;;;;;2.30;1.80;;;24.60;60.60;;;;;;4953500;28;20035;-79
2022/07/02 04:19:55;;;;;;;2.20;1.77;;;24.60;60.50;;;;;;4970038;28;20365;-80
2022/07/02 04:22:21;;;;;;;2.42;2.00;;;24.60;60.50;;;;;;4954972;28;20038;-80
2022/07/02 04:24:47;;;;;;;2.25;1.83;;;24.60;60.50;;;;;;4954847;28;20027;-79
2022/07/02 04:27:14;;;;;;;2.30;2.00;;;24.60;60.50;;;;;;4954462;28;20027;-80
2022/07/02 04:29:41;;;;;;;2.40;1.90;;;24.60;60.50;;;;;;4953505;29;20542;-79
2022/07/02 04:32:07;;;;;;;2.10;1.70;;;24.60;60.50;;;;;;4954876;28;20028;-79
2022/07/02 04:34:33;;;;;;;3.13;2.22;;;24.60;60.50;;;;;;4969664;28;20395;-79
2022/07/02 04:36:58;;;;;;;2.38;1.90;;;24.60;60.50;;;;;;4954301;28;20030;-80
2022/07/02 04:39:25;;;;;;;2.83;2.10;;;24.60;60.50;;;;;;4969750;28;20503;-78
2022/07/02 04:41:51;;;;;;;2.60;1.98;;;24.60;60.50;;;;;;4954691;28;20025;-79
2022/07/02 04:44:17;;;;;;;2.20;1.90;;;24.60;60.50;;;;;;4954479;28;20453;-79
2022/07/02 04:46:43;;;;;;;2.05;1.60;;;24.60;60.50;;;;;;4954139;28;20102;-79
2022/07/02 04:49:09;;;;;;;2.65;1.88;;;24.60;60.50;;;;;;4954311;28;20027;-79
2022/07/02 04:51:34;;;;;;;3.83;2.25;;;24.60;60.50;;;;;;4969550;28;20057;-79
2022/07/02 04:54:00;;;;;;;3.97;1.90;;;24.60;60.50;;;;;;4954355;28;20031;-79
2022/07/02 04:56:27;;;;;;;2.47;1.88;;;24.60;60.50;;;;;;4953978;28;20082;-79
2022/07/02 04:58:54;;;;;;;2.60;1.98;;;24.60;60.40;;;;;;4953082;28;20453;-79
2022/07/02 05:01:23;;;;;;;3.38;2.28;;;24.60;60.40;;;;;;4954261;28;20519;-79
2022/07/02 05:03:50;;;;;;;2.45;1.90;;;24.60;60.40;;;;;;4954221;28;20081;-79
2022/07/02 05:06:17;;;;;;;2.42;2.00;;;24.60;60.40;;;;;;4953963;28;20149;-78
2022/07/02 05:08:43;;;;;;;2.53;2.08;;;24.60;60.40;;;;;;4954153;28;20040;-78
2022/07/02 05:11:09;;;;;;;3.05;2.03;;;24.60;60.40;;;;;;4954212;28;20491;-79
2022/07/02 05:13:35;;;;;;;4.05;2.40;;;24.60;60.40;;;;;;4952720;29;20101;-79
2022/07/02 05:16:00;;;;;;;2.50;2.17;;;24.60;60.40;;;;;;4953982;28;20038;-79
2022/07/02 05:18:26;;;;;;;2.22;1.73;;;24.60;60.30;;;;;;4954029;28;20027;-79
2022/07/02 05:20:52;;;;;;;2.83;1.98;;;24.60;60.30;;;;;;4954003;28;20387;-79
2022/07/02 05:23:18;;;;;;;3.35;2.20;;;24.60;60.30;;;;;;4953974;28;20125;-79
2022/07/02 05:25:43;;;;;;;2.38;1.98;;;24.60;60.30;;;;;;4953697;28;20031;-79
2022/07/02 05:28:09;;;;;;;2.58;1.88;;;24.60;60.40;;;;;;4968755;28;20062;-79
2022/07/02 05:30:35;;;;;;;2.40;2.00;;;24.60;60.30;;;;;;4968786;28;20031;-79
2022/07/02 05:33:01;;;;;;;3.10;2.47;;;24.60;60.40;;;;;;4952587;29;20395;-79
2022/07/02 05:35:26;;;;;;;3.65;2.40;;;24.60;60.40;;;;;;4953592;28;20039;-79
2022/07/02 05:37:52;;;;;;;4.28;2.75;;;24.60;60.40;;;;;;4936606;29;20400;-79
2022/07/02 05:40:18;;;;;;;3.47;2.33;;;24.60;60.40;;;;;;4952767;29;20442;-79
2022/07/02 05:42:44;;;;;;;4.28;2.63;;;24.60;60.40;;;;;;4952468;29;20106;-79
2022/07/02 05:45:10;;;;;;;3.22;2.40;;;24.60;60.40;;;;;;4968729;28;20102;-79
2022/07/02 05:47:36;;;;;;;3.40;2.40;;;24.60;60.30;;;;;;4968259;28;20106;-79
2022/07/02 05:50:02;;;;;;;2.70;2.30;;;24.60;60.40;;;;;;4953648;28;20131;-79
2022/07/02 05:52:28;;;;;;;3.30;2.17;;;24.60;60.30;;;;;;4968422;28;20037;-79
2022/07/02 05:54:53;;;;;;;3.15;2.40;;;24.60;60.30;;;;;;4953705;28;20102;-79
2022/07/02 05:57:19;;;;;;;3.20;2.38;;;24.60;60.40;;;;;;4953302;28;20049;-79
2022/07/02 05:59:45;;;;;;;4.25;2.22;;;24.60;60.40;;;;;;4952675;28;20157;-79
2022/07/02 06:02:11;;;;;;;3.30;2.13;;;24.60;60.40;;;;;;4952255;29;20106;-79
2022/07/02 06:04:37;;;;;;;2.63;2.20;;;24.60;60.30;;;;;;4968513;28;20058;-79
2022/07/02 06:09:47;;;;;;;3.45;2.50;;;24.60;60.30;;;;;;4957699;28;20038;-79
2022/07/02 06:12:12;;;;;;;2.72;2.30;;;24.60;60.30;;;;;;4957057;28;20407;-79
2022/07/02 06:14:38;;;;;;;2.60;2.28;;;24.60;60.30;;;;;;4957346;28;20031;-81
2022/07/02 06:17:04;;;;;;;3.08;2.50;;;24.60;60.30;;;;;;4955655;29;20027;-80
2022/07/02 06:19:30;;;;;;;3.42;2.40;;;24.60;60.30;;;;;;4957061;28;20524;-80
2022/07/02 06:21:56;;;;;;;3.17;2.55;;;24.60;60.30;;;;;;4972045;28;20089;-81
2022/07/02 06:24:21;;;;;;;4.03;2.40;;;24.60;60.30;;;;;;4971948;28;20086;-81
2022/07/02 06:26:47;;;;;;;3.55;2.83;;;24.60;60.30;;;;;;4955652;29;20062;-81
2022/07/02 06:29:13;;;;;;;4.57;2.80;;;24.60;60.30;;;;;;4957022;28;20065;-81
2022/07/02 06:31:39;;;;;;;3.55;2.65;;;24.60;60.30;;;;;;4956982;28;20023;-80
2022/07/02 06:34:05;;;;;;;3.50;2.50;;;24.60;60.30;;;;;;4955504;29;20090;-81
2022/07/02 06:36:31;;;;;;;4.22;2.28;;;24.60;60.20;;;;;;4956524;28;20063;-80
2022/07/02 06:38:56;;;;;;;3.75;2.60;;;24.60;60.20;;;;;;4956891;28;20069;-79
2022/07/02 06:44:07;;;;;;;3.53;2.70;;;24.60;60.20;;;;;;4956709;28;20066;-80
2022/07/02 06:46:36;;;;;;;3.45;2.35;;;24.60;60.20;;;;;;4956346;28;20070;-79
2022/07/02 06:49:02;;;;;;;4.18;2.70;;;24.60;60.20;;;;;;4956804;28;20101;-78
2022/07/02 06:51:28;;;;;;;3.95;2.60;;;24.60;60.20;;;;;;4956597;28;20484;-79
2022/07/02 06:53:59;;;;;;;3.15;2.53;;;24.60;60.20;;;;;;4971417;28;20416;-80
2022/07/02 06:56:32;;;;;;;3.40;2.50;;;24.60;60.20;;;;;;4956134;28;20059;-78
2022/07/02 06:58:58;;;;;;;3.40;2.65;;;24.60;60.10;;;;;;4956494;28;20480;-78
2022/07/02 07:01:23;;;;;;;3.75;2.83;;;24.60;60.10;;;;;;4956501;28;20440;-79
2022/07/02 07:03:49;;;;;;;3.53;2.50;;;24.60;60.20;;;;;;4956366;28;20023;-79
2022/07/02 07:06:15;;;;;;;4.00;2.60;;;24.60;60.20;;;;;;4956106;28;20027;-77
2022/07/02 07:08:41;;;;;;;2.70;2.20;;;24.60;60.10;;;;;;4955081;28;20054;-77
2022/07/02 07:11:06;;;;;;;3.35;2.33;;;24.60;60.20;;;;;;4956288;28;20039;-78
2022/07/02 07:13:32;;;;;;;4.05;2.90;;;24.60;60.10;;;;;;4955003;28;20046;-78
2022/07/02 07:15:59;;;;;;;4.22;2.78;;;24.60;60.20;;;;;;4970655;28;20034;-78
2022/07/02 07:18:25;;;;;;;3.60;2.47;;;24.60;60.20;;;;;;4953871;28;20035;-78
2022/07/02 07:20:53;;;;;;;3.72;2.80;;;24.60;60.20;;;;;;4971016;28;20152;-78
2022/07/02 07:23:18;;;;;;;3.97;2.72;;;24.60;60.20;;;;;;4954480;28;20028;-77
2022/07/02 07:25:44;;;;;;;3.85;2.83;;;24.60;60.30;;;;;;4955397;28;20028;-79
2022/07/02 07:28:10;;;;;;;3.40;2.50;;;24.60;60.20;;;;;;4955810;28;20094;-78
2022/07/02 07:30:35;;;;;;;4.07;3.10;;;24.60;60.20;;;;;;4970693;28;20035;-78
2022/07/02 07:33:01;;;;;;;3.72;2.67;;;24.60;60.80;;;;;;4970770;28;20042;-78
2022/07/02 07:35:27;;;;;;;2.88;2.22;;;24.60;60.20;;;;;;4954348;29;20039;-78
2022/07/02 07:38:00;;;;;;;3.72;2.83;;;24.60;60.30;;;;;;4955454;28;20035;-78
2022/07/02 07:40:26;;;;;;;3.10;2.35;;;24.60;60.20;;;;;;4955785;28;20131;-78
2022/07/02 07:42:52;;;;;;;4.35;2.80;;;24.60;60.70;;;;;;4955637;28;20031;-79
2022/07/02 07:45:18;;;;;;;4.43;2.85;;;24.60;60.20;;;;;;4970741;28;20507;-79
2022/07/02 07:47:44;;;;;;;3.05;2.42;;;24.60;60.20;;;;;;4954278;28;20050;-79
2022/07/02 07:50:10;;;;;;;3.63;2.78;;;24.60;60.20;;;;;;4955652;28;20027;-79
2022/07/02 07:52:35;;;;;;;3.63;2.63;;;24.60;60.20;;;;;;4955679;28;20504;-85
2022/07/02 07:55:01;;;;;;;3.90;2.70;;;24.60;60.20;;;;;;4955815;28;20038;-83
2022/07/02 07:57:27;;;;;;;3.65;2.78;;;24.60;60.20;;;;;;4955887;28;20031;-84
2022/07/02 07:59:53;;;;;;;3.75;2.75;;;24.60;60.20;;;;;;4970656;28;20031;-84
2022/07/02 08:02:19;;;;;;;3.65;2.65;;;24.60;60.20;;;;;;4970778;28;20031;-84
2022/07/02 08:04:45;;;;;;;4.32;2.70;;;24.60;60.20;;;;;;4955934;28;20028;-84
2022/07/02 08:07:11;;;;;;;3.55;2.55;;;24.60;60.20;;;;;;4955256;28;20057;-84
2022/07/02 08:09:37;;;;;;;4.55;2.45;;;24.60;60.20;;;;;;4970649;28;20039;-85
2022/07/02 08:12:04;;;;;;;2.83;2.40;;;24.60;60.20;;;;;;4955867;28;20035;-84
2022/07/02 08:14:30;;;;;;;3.35;2.50;;;24.60;60.20;;;;;;4970930;28;20039;-85
2022/07/02 08:16:55;;;;;;;3.35;2.42;;;24.60;60.10;;;;;;4955075;28;20472;-83
2022/07/02 08:19:21;;;;;;;3.17;2.28;;;24.60;60.10;;;;;;4954156;28;20059;-83
2022/07/02 08:21:47;;;;;;;5.30;2.70;;;24.60;60.10;;;;;;4955097;28;20027;-83
2022/07/02 08:24:12;;;;;;;3.72;2.13;;;24.60;60.10;;;;;;4955091;28;20031;-83
2022/07/02 08:26:38;;;;;;;2.70;2.10;;;24.60;60.00;;;;;;4954766;28;20038;-83
2022/07/02 08:29:04;;;;;;;3.80;2.55;;;24.70;60.10;;;;;;4954787;28;20028;-83
2022/07/02 08:31:30;;;;;;;3.58;2.50;;;24.70;60.10;;;;;;4954896;28;20378;-83
2022/07/02 08:33:55;;;;;;;3.33;2.25;;;24.70;60.10;;;;;;4955140;28;20106;-84
2022/07/02 08:36:21;;;;;;;3.03;2.40;;;24.70;60.10;;;;;;4954620;28;20396;-83
2022/07/02 08:38:47;;;;;;;3.30;2.42;;;24.70;60.10;;;;;;4969691;28;20027;-79
2022/07/02 08:41:13;;;;;;;3.40;2.53;;;24.70;60.00;;;;;;4969565;28;20086;-79
2022/07/02 08:43:41;;;;;;;3.10;2.50;;;24.70;60.00;;;;;;4953587;28;20158;-79
2022/07/02 08:46:08;;;;;;;3.08;2.30;;;24.70;60.00;;;;;;4969376;28;20408;-79
2022/07/02 08:48:34;;;;;;;3.40;2.60;;;24.70;60.10;;;;;;4954561;28;20023;-79
2022/07/02 08:51:00;;;;;;;3.50;2.22;;;24.70;60.10;;;;;;4953167;28;20451;-79
2022/07/02 08:53:26;;;;;;;3.75;2.45;;;24.70;60.10;;;;;;4953449;29;20162;-79
2022/07/02 08:55:53;;;;;;;3.15;2.55;;;24.60;60.00;;;;;;4954098;28;20110;-79
2022/07/02 08:58:20;;;;;;;3.25;2.20;;;24.70;60.10;;;;;;4954425;28;20054;-79
2022/07/02 09:00:48;;;;;;;4.05;2.55;;;24.70;60.10;;;;;;4953042;29;20408;-79
2022/07/02 09:03:18;;;;;;;3.38;2.60;;;24.70;60.10;;;;;;4954268;28;20027;-79
2022/07/02 09:05:47;;;;;;;3.50;2.58;;;24.70;60.10;;;;;;4968824;28;20031;-78
2022/07/02 09:08:13;;;;;;;3.88;2.53;;;24.70;60.20;;;;;;4954276;28;20031;-79
2022/07/02 09:10:39;;;;;;;3.08;2.33;;;24.60;60.00;;;;;;4954134;28;20166;-79
2022/07/02 09:13:06;;;;;;;3.35;2.25;;;24.70;60.10;;;;;;4953936;28;20444;-78
2022/07/02 09:15:34;;;;;;;3.35;2.15;;;24.60;60.10;;;;;;4968900;28;20381;-79
2022/07/02 09:18:00;;;;;;;2.88;2.22;;;24.70;60.10;;;;;;4953924;28;20023;-79
2022/07/02 09:20:26;;;;;;;2.42;2.08;;;24.60;60.10;;;;;;4954054;28;20028;-79
2022/07/02 09:22:53;;;;;;;3.45;2.17;;;24.60;60.10;;;;;;4953916;28;20514;-79
2022/07/02 09:25:21;;;;;;;3.40;2.60;;;24.70;60.10;;;;;;4968849;28;20063;-79
2022/07/02 09:27:58;;;;;;;2.72;2.30;;;24.70;60.10;;;;;;4952806;29;20469;-78
2022/07/02 09:30:23;;;;;;;3.05;2.00;;;24.70;60.10;;;;;;4952887;28;20038;-79
2022/07/02 09:33:28;;;;;;;2.97;2.28;;;24.70;60.10;;;;;;4953756;28;20031;-79
2022/07/02 09:35:35;;;;;;;3.13;2.20;;;24.70;60.20;;;;;;4953542;28;20027;-79
2022/07/02 09:38:08;;;;;;;3.22;2.30;;;24.70;60.20;;;;;;4953700;28;20031;-78
2022/07/02 09:40:34;;;;;;;5.00;2.28;;;24.60;60.20;;;;;;4968164;28;20151;-79
2022/07/02 09:42:59;;;;;;;2.92;2.08;;;24.60;60.20;;;;;;4953655;28;20530;-78
2022/07/02 09:45:26;;;;;;;2.63;2.17;;;24.60;60.20;;;;;;4953671;28;20031;-79
2022/07/02 09:47:53;;;;;;;2.90;2.10;;;24.60;60.20;;;;;;4968271;28;20139;-79
2022/07/02 09:50:20;;;;;;;3.35;2.40;;;24.60;60.10;;;;;;4953777;28;20086;-79
2022/07/02 09:52:57;;;;;;;2.88;2.00;;;24.60;60.10;;;;;;4953534;28;20407;-78
2022/07/02 09:55:25;;;;;;;2.90;2.35;;;24.70;60.10;;;;;;4968417;28;20439;-78
2022/07/02 09:57:55;;;;;;;2.75;2.05;;;24.70;60.10;;;;;;4953391;28;20090;-79
2022/07/02 10:00:23;;;;;;;3.00;2.13;;;24.60;60.10;;;;;;4953577;28;20031;-79
2022/07/02 10:02:51;;;;;;;2.95;2.25;;;24.70;60.10;;;;;;4968407;28;20023;-78
2022/07/02 10:05:22;;;;;;;3.00;2.30;;;24.70;60.10;;;;;;4953647;28;20445;-79
2022/07/02 10:07:48;;;;;;;2.72;2.22;;;24.70;60.60;;;;;;4953168;28;20369;-78
2022/07/02 10:10:14;;;;;;;3.30;2.30;;;24.70;60.10;;;;;;4953503;28;20026;-79
2022/07/02 10:12:42;;;;;;;2.80;2.08;;;24.70;60.10;;;;;;4953277;28;20031;-78
2022/07/02 10:15:12;;;;;;;3.72;2.20;;;24.70;60.10;;;;;;4953559;28;20035;-78
2022/07/02 10:17:39;;;;;;;3.00;2.22;;;24.70;60.10;;;;;;4952351;28;20074;-79
2022/07/02 10:20:05;;;;;;;2.95;2.10;;;24.60;60.60;;;;;;4953336;28;20120;-79
2022/07/02 10:22:31;;;;;;;2.35;1.90;;;24.60;60.10;;;;;;4953266;28;20531;-78
2022/07/02 10:24:58;;;;;;;3.00;2.05;;;24.70;60.10;;;;;;4952504;28;20039;-79
2022/07/02 10:27:24;;;;;;;2.50;2.20;;;24.60;60.10;;;;;;4951996;28;20090;-79
2022/07/02 10:29:51;;;;;;;2.35;1.95;;;24.60;60.10;;;;;;4968277;28;20027;-78
2022/07/02 10:32:27;;;;;;;2.92;2.28;;;24.60;60.10;;;;;;4953283;28;20082;-78
2022/07/02 10:35:04;;;;;;;3.63;2.30;;;24.70;60.20;;;;;;4953262;28;20035;-78
2022/07/02 10:37:32;;;;;;;3.08;2.20;;;24.70;60.10;;;;;;4952982;28;20521;-79
2022/07/02 10:40:02;;;;;;;2.35;1.85;;;24.70;60.20;;;;;;4953189;28;20035;-78
2022/07/02 10:42:49;;;;;;;3.10;2.40;;;24.60;60.10;;;;;;4953301;28;20101;-78
2022/07/02 10:45:18;;;;;;;2.30;1.95;;;24.70;60.10;;;;;;4953280;28;20049;-79
2022/07/02 10:48:03;;;;;;;2.85;2.10;;;24.60;60.10;;;;;;4951810;29;20027;-78
2022/07/02 10:50:35;;;;;;;2.75;2.15;;;24.70;60.20;;;;;;4952098;29;20023;-79
2022/07/02 10:53:17;;;;;;;2.75;2.13;;;24.60;60.20;;;;;;4955480;28;20034;-78
2022/07/02 10:55:50;;;;;;;3.17;1.95;;;24.60;60.20;;;;;;4956109;28;20042;-78
2022/07/02 10:58:28;;;;;;;2.58;2.10;;;24.60;60.20;;;;;;4956561;28;20500;-78
2022/07/02 11:00:53;;;;;;;2.58;2.05;;;24.60;60.20;;;;;;4956480;28;20031;-78
2022/07/02 11:03:21;;;;;;;2.85;2.15;;;24.60;60.20;;;;;;4971248;28;20619;-78
2022/07/02 11:06:29;;;;;;;2.80;2.03;;;24.60;60.20;;;;;;4970875;28;20066;-78
2022/07/02 11:09:05;;;;;;;2.95;2.10;;;24.60;60.20;;;;;;4971324;28;20392;-78
2022/07/02 11:11:40;;;;;;;3.03;2.25;;;24.60;60.20;;;;;;4971374;28;20455;-78
2022/07/02 11:14:07;;;;;;;2.83;2.20;;;24.60;60.20;;;;;;4956078;29;20526;-76
2022/07/02 11:16:40;;;;;;;2.85;2.03;;;24.60;60.20;;;;;;4970616;28;20031;-77
2022/07/02 11:19:14;;;;;;;2.92;1.90;;;24.70;60.20;;;;;;4956719;28;20035;-77
2022/07/02 11:21:40;;;;;;;3.53;2.10;;;24.60;60.20;;;;;;4956591;28;20106;-76
2022/07/02 11:24:07;;;;;;;2.67;2.03;;;24.70;60.20;;;;;;4971671;28;20074;-77
2022/07/02 11:26:33;;;;;;;3.58;2.13;;;24.60;60.10;;;;;;4955095;28;20443;-77
2022/07/02 11:29:05;;;;;;;3.10;2.25;;;24.60;60.10;;;;;;4939500;29;20035;-77
2022/07/02 11:31:40;;;;;;;2.65;2.00;;;24.60;60.10;;;;;;4971268;28;20050;-77
2022/07/02 11:34:06;;;;;;;3.63;2.45;;;24.60;60.10;;;;;;4971075;28;20110;-77
2022/07/02 11:36:32;;;;;;;3.33;2.03;;;24.60;60.10;;;;;;4955913;28;20499;-77
2022/07/02 11:38:58;;;;;;;3.00;2.17;;;24.60;60.10;;;;;;4956084;28;20055;-77
2022/07/02 11:41:25;;;;;;;2.85;1.98;;;24.60;60.10;;;;;;4956128;28;20061;-77
2022/07/02 11:43:54;;;;;;;2.28;1.80;;;24.70;60.10;;;;;;4970755;28;20085;-78
2022/07/02 11:46:22;;;;;;;2.95;2.05;;;24.60;60.10;;;;;;4954435;29;20516;-77
2022/07/02 11:48:49;;;;;;;2.35;1.73;;;24.60;60.10;;;;;;4955776;28;20035;-77
2022/07/02 11:51:16;;;;;;;3.15;2.17;;;24.70;60.10;;;;;;4970687;28;20035;-77
2022/07/02 11:53:42;;;;;;;2.85;2.05;;;24.70;60.10;;;;;;4955574;28;20110;-76
2022/07/02 11:56:10;;;;;;;3.03;2.20;;;24.70;60.10;;;;;;4970040;28;20042;-77
2022/07/02 11:58:43;;;;;;;2.78;1.90;;;24.60;60.10;;;;;;4954261;28;20035;-78
2022/07/02 12:01:24;;;;;;;2.28;1.83;;;24.70;60.10;;;;;;4954134;29;20491;-77
2022/07/02 12:03:52;;;;;;;3.75;2.00;;;24.70;60.20;;;;;;4969707;28;20130;-77
2022/07/02 12:06:18;;;;;;;3.22;2.20;;;24.60;60.10;;;;;;4953882;28;20039;-76
2022/07/02 12:08:44;;;;;;;2.85;2.08;;;24.60;60.10;;;;;;4970249;28;20384;-76
2022/07/02 12:11:11;;;;;;;3.30;1.88;;;24.60;60.10;;;;;;4954128;28;20034;-76
2022/07/02 12:13:37;;;;;;;2.15;1.73;;;24.60;60.10;;;;;;4954977;28;20035;-76
2022/07/02 12:16:03;;;;;;;2.17;1.73;;;24.60;60.10;;;;;;4969595;28;20182;-76
2022/07/02 12:18:29;;;;;;;2.55;1.92;;;24.60;60.10;;;;;;4969921;28;20027;-76
2022/07/02 12:21:19;;;;;;;2.40;1.85;;;24.60;60.10;;;;;;4955023;28;20071;-77
2022/07/02 12:23:50;;;;;;;2.53;1.83;;;24.60;60.20;;;;;;4954638;28;20027;-77
2022/07/02 12:26:27;;;;;;;2.03;1.80;;;24.60;60.20;;;;;;4953112;29;20031;-77
2022/07/02 12:31:51;;;;;;;2.72;2.05;;;24.60;60.10;;;;;;4969627;28;20554;-77
2022/07/02 12:34:19;;;;;;;2.78;1.65;;;24.60;60.20;;;;;;4954688;28;20038;-77
2022/07/02 12:36:55;;;;;;;2.55;1.85;;;24.60;60.70;;;;;;4954352;28;20046;-77
2022/07/02 12:39:37;;;;;;;2.22;1.85;;;24.60;60.10;;;;;;4955129;28;20027;-77
2022/07/02 12:42:23;;;;;;;3.22;2.08;;;24.60;60.10;;;;;;4969449;28;20163;-77
2022/07/02 12:45:09;;;;;;;2.33;1.88;;;24.60;60.20;;;;;;4954670;28;20038;-77
2022/07/02 12:47:39;;;;;;;2.92;2.00;;;24.60;60.10;;;;;;4937196;29;20062;-77
2022/07/02 12:50:13;;;;;;;2.47;1.67;;;24.60;60.20;;;;;;4954628;28;20037;-77
2022/07/02 12:52:45;;;;;;;3.28;2.05;;;24.60;60.20;;;;;;4954346;28;20163;-77
2022/07/02 12:55:38;;;;;;;2.50;1.70;;;24.60;60.20;;;;;;4969234;28;20031;-78
2022/07/02 12:58:09;;;;;;;3.05;2.10;;;24.60;60.10;;;;;;4954450;28;20472;-78
2022/07/02 13:00:36;;;;;;;2.30;1.75;;;24.60;60.10;;;;;;4969309;28;20079;-79